createdAt,value
2018-08-13T00:13:08.437Z,84.33
2018-08-13T00:28:42.814Z,85.47
2018-08-13T00:44:16.646Z,85.70
2018-08-13T00:59:51.161Z,86.75
2018-08-13T01:15:26.341Z,85.88
2018-08-13T01:30:59.499Z,86.57
2018-08-13T01:46:32.614Z,85.32
2018-08-13T02:02:07.361Z,82.93
2018-08-13T02:17:41.299Z,85.00
2018-08-13T02:33:15.708Z,86.08
2018-08-13T02:48:50.362Z,88.84
2018-08-13T03:04:24.775Z,89.82
2018-08-13T03:19:58.509Z,91.18
2018-08-13T03:35:33.018Z,92.73
2018-08-13T03:51:07.309Z,91.62
2018-08-13T04:06:41.787Z,83.77
2018-08-13T04:22:16.103Z,72.52
2018-08-13T04:37:51.617Z,65.56
2018-08-13T04:53:26.243Z,59.26
2018-08-13T05:09:00.837Z,54.61
2018-08-13T05:24:35.037Z,51.24
2018-08-13T05:40:09.345Z,47.65
2018-08-13T05:55:43.650Z,45.94
2018-08-13T06:11:17.795Z,43.60
2018-08-13T06:26:51.926Z,42.80
2018-08-13T06:42:26.463Z,41.21
2018-08-13T06:58:00.839Z,42.95
2018-08-13T07:13:35.321Z,46.12
2018-08-13T07:29:10.004Z,42.17
2018-08-13T07:44:44.264Z,40.15
2018-08-13T08:00:21.051Z,41.16
2018-08-13T08:15:55.371Z,40.61
2018-08-13T08:31:29.397Z,36.55
2018-08-13T08:47:04.282Z,36.80
2018-08-13T09:02:38.887Z,37.24
2018-08-13T09:18:25.356Z,36.71
2018-08-13T09:34:10.998Z,37.66
2018-08-13T09:49:44.898Z,34.54
2018-08-13T10:05:18.323Z,35.05
2018-08-13T10:20:52.421Z,33.17
2018-08-13T10:36:26.829Z,34.44
2018-08-13T10:51:59.934Z,33.50
2018-08-13T11:07:34.264Z,31.48
2018-08-13T11:23:08.679Z,34.05
2018-08-13T11:38:42.660Z,30.58
2018-08-13T11:54:25.578Z,35.55
2018-08-13T12:10:00.634Z,35.19
2018-08-13T12:25:38.005Z,35.57
2018-08-13T12:41:12.601Z,32.90
2018-08-13T12:56:45.893Z,33.59
2018-08-13T13:12:20.724Z,31.83
2018-08-13T13:27:54.771Z,34.09
2018-08-13T13:43:29.842Z,37.14
2018-08-13T13:59:05.279Z,33.01
2018-08-13T14:14:40.087Z,34.59
2018-08-13T14:30:14.553Z,36.88
2018-08-13T14:45:48.953Z,38.72
2018-08-13T15:01:23.620Z,39.48
2018-08-13T15:16:57.752Z,39.93
2018-08-13T15:32:32.381Z,38.29
2018-08-13T15:48:07.187Z,43.58
2018-08-13T16:03:41.391Z,46.18
2018-08-13T16:19:15.791Z,46.10
2018-08-13T16:34:50.646Z,48.44
2018-08-13T16:50:29.388Z,48.62
2018-08-13T17:06:03.480Z,50.05
2018-08-13T17:21:37.979Z,50.73
2018-08-13T17:37:12.431Z,50.91
2018-08-13T17:52:48.097Z,50.84
2018-08-13T18:08:23.570Z,49.55
2018-08-13T18:23:57.656Z,49.86
2018-08-13T18:39:33.437Z,49.37
2018-08-13T18:55:08.149Z,49.14
2018-08-13T19:10:43.043Z,50.10
2018-08-13T19:26:17.110Z,50.87
2018-08-13T19:41:51.272Z,53.23
2018-08-13T19:57:25.729Z,52.82
2018-08-13T20:13:00.333Z,59.72
